Wind From: 20-09-2018 10:00 Until: 20:00 warning for: Wind Level: Yellow info button
suomi:
Tuulivaroitus maa-alueille: Lounaistuuli on voimakasta iltapäivällä ja illalla, tuulen nopeus puuskissa 15 m/s.

svenska:
Vindvarning för landområden: På eftermiddagen och kvällen är den sydvästliga vinden kraftigt, i vindbyarna 15 m/s.

english:
Wind warning for land areas: In the afternoon and in the evening, strong winds from southwest may bring strong gusts of 15 m/s. 


Thunder radar more information blitzortung!


Löydät sääaseman tiedot myös:

European Weather Network

Finland Weather Exchange

Weather Underground

AWEKAS



Weather Underground säähistoriasivu

Päivittäin yhteenveto Syyskuu 25, 2017 Yksiköt:  Englantilaiset    Metriset   Molemmat
« Edellinen Päivä
Seuraava Päivä »
Päivittäin Viikoittain Kuukausittain Vuosittain Mukautettu
  Korkea: Matala: Keskiarvo:
Lämpötila: TemperatureC °F 2.5 °F 9 °F
Kastepiste: DewpointC °F 2.0 °F 7.3 °F
Kosteus: Humidity % 61 % 89 %
Tuulen nopeus: WindSpeedKMH mph 0.0 mph 0.1 mph
Tuulenpuuska: WindSpeedGustKMH mph - -
Tuuli:- - SSE
Ilmanpaine: PressurehPa in 1037.5 in -
Sade: 0.0 in    
Historical Graphs
 
 
Taulukkotiedot Syyskuu 25, 2017
Aika Lämpötila Kastepiste Ilmanpaine Tuuli Tuulen nopeus Tuulenpuuska Kosteus Sademäärä (tunneittain)
TemperatureC °F DewpointC °F PressurehPa in Calm     Humidity % HourlyPrecipMM in
00:00 6.6 °F 6.0 °F 1037.5 in Calm     96 % 0.0 in
00:15 6.3 °F 5.7 °F 1037.8 in Calm     96 % 0.0 in
00:30 6.2 °F 5.6 °F 1037.8 in Calm     96 % 0.0 in
00:45 6.1 °F 5.5 °F 1037.8 in Calm     96 % 0.0 in
01:00 5.8 °F 5.2 °F 1038.1 in Calm     96 % 0.0 in
01:15 5.6 °F 5.0 °F 1037.8 in Calm     96 % 0.0 in
01:30 5.3 °F 4.7 °F 1038.1 in Calm     96 % 0.0 in
01:45 5.3 °F 4.7 °F 1038.1 in Calm     96 % 0.0 in
02:00 5.1 °F 4.5 °F 1038.1 in Calm     96 % 0.0 in
02:15 4.9 °F 4.4 °F 1038.1 in Calm     96 % 0.0 in
02:30 4.8 °F 4.2 °F 1038.1 in Calm     96 % 0.0 in
02:45 4.7 °F 4.1 °F 1038.5 in Calm     96 % 0.0 in
03:00 4.5 °F 3.9 °F 1038.5 in Calm     96 % 0.0 in
03:15 4.4 °F 3.8 °F 1038.1 in Calm     96 % 0.0 in
03:30 4.3 °F 3.7 °F 1038.5 in Calm     96 % 0.0 in
03:45 4.1 °F 3.5 °F 1038.5 in Calm     96 % 0.0 in
04:00 3.9 °F 3.4 °F 1038.5 in Calm     96 % 0.0 in
04:15 3.7 °F 3.1 °F 1038.5 in Calm     96 % 0.0 in
04:30 3.6 °F 3.0 °F 1038.5 in Calm     96 % 0.0 in
04:45 3.4 °F 2.8 °F 1038.5 in Calm     96 % 0.0 in
05:00 3.2 °F 2.6 °F 1038.5 in Calm     96 % 0.0 in
05:15 3.1 °F 2.6 °F 1038.5 in Calm     97 % 0.0 in
05:30 2.9 °F 2.4 °F 1038.5 in Calm     96 % 0.0 in
05:45 2.8 °F 2.4 °F 1038.5 in Calm     97 % 0.0 in
06:00 2.6 °F 2.0 °F 1038.5 in Calm     96 % 0.0 in
06:30 2.5 °F 2.1 °F 1038.8 in Calm     97 % 0.0 in
06:45 2.6 °F 2.1 °F 1038.5 in Calm     97 % 0.0 in
07:00 2.6 °F 2.2 °F 1038.8 in Calm     97 % 0.0 in
07:15 2.8 °F 2.3 °F 1038.8 in Calm     97 % 0.0 in
07:30 2.7 °F 2.3 °F 1038.5 in Calm     97 % 0.0 in
07:45 2.6 °F 2.2 °F 1038.8 in Calm     97 % 0.0 in
08:00 2.6 °F 2.1 °F 1038.8 in Calm     97 % 0.0 in
08:15 2.5 °F 2.1 °F 1038.8 in Calm     97 % 0.0 in
08:30 2.7 °F 2.2 °F 1039.2 in Calm     97 % 0.0 in
08:45 2.9 °F 2.5 °F 1039.2 in Calm     97 % 0.0 in
09:00 3.3 °F 2.8 °F 1039.2 in Calm     97 % 0.0 in
09:15 3.8 °F 3.5 °F 1039.2 in Calm     98 % 0.0 in
09:30 4.4 °F 4.2 °F 1039.2 in Calm     98 % 0.0 in
09:45 5.3 °F 5.0 °F 1039.2 in Calm     98 % 0.0 in
10:00 5.9 °F 5.7 °F 1039.2 in Calm   1.6 mph 98 % 0.0 in
10:15 6.7 °F 6.4 °F 1039.2 in Calm   1.6 mph 98 % 0.0 in
10:30 7.3 °F 7.0 °F 1039.2 in Calm     98 % 0.0 in
10:45 8.1 °F 7.8 °F 1039.2 in Calm     98 % 0.0 in
11:00 8.9 °F 8.6 °F 1039.5 in Calm     98 % 0.0 in
11:15 9.8 °F 9.5 °F 1039.5 in Calm     98 % 0.0 in
11:30 10.6 °F 10.3 °F 1039.5 in Calm     98 % 0.0 in
11:45 11.3 °F 11.0 °F 1039.5 in Calm     98 % 0.0 in
12:00 12.2 °F 11.7 °F 1039.5 in Calm     97 % 0.0 in
12:15 12.6 °F 11.3 °F 1039.5 in Calm     92 % 0.0 in
12:30 13.3 °F 11.7 °F 1039.5 in Calm     90 % 0.0 in
12:45 14.1 °F 12.1 °F 1039.5 in Calm   1.6 mph 88 % 0.0 in
13:00 14.7 °F 12.0 °F 1039.5 in Calm   6.4 mph 84 % 0.0 in
13:15 15.3 °F 12.2 °F 1039.5 in Calm   4.8 mph 82 % 0.0 in
13:30 15.7 °F 12.2 °F 1039.5 in Calm   6.4 mph 80 % 0.0 in
13:45 16.1 °F 12.3 °F 1039.5 in Calm   8.0 mph 78 % 0.0 in
14:00 16.5 °F 12.6 °F 1039.5 in SSE 1.6 mph 9.7 mph 78 % 0.0 in
14:15 17.1 °F 12.2 °F 1039.5 in SE 1.6 mph 11.3 mph 73 % 0.0 in
14:30 17.4 °F 11.9 °F 1039.5 in SE 1.6 mph 11.3 mph 70 % 0.0 in
14:45 17.8 °F 12.5 °F 1039.5 in South 1.6 mph 8.0 mph 71 % 0.0 in
15:00 18.1 °F 12.3 °F 1039.5 in Calm   3.2 mph 69 % 0.0 in
15:15 18.1 °F 12.1 °F 1039.2 in Calm   3.2 mph 68 % 0.0 in
15:30 18.4 °F 12.4 °F 1039.2 in Calm     68 % 0.0 in
15:45 18.6 °F 12.4 °F 1039.2 in Calm   3.2 mph 67 % 0.0 in
16:00 18.9 °F 12.7 °F 1038.8 in Calm     67 % 0.0 in
16:30 18.9 °F 11.3 °F 1039.2 in SSW 1.6 mph 6.4 mph 61 % 0.0 in
16:45 19.1 °F 12.1 °F 1038.8 in Calm     64 % 0.0 in
17:00 18.7 °F 12.7 °F 1039.2 in Calm     68 % 0.0 in
17:15 18.3 °F 11.4 °F 1039.2 in Calm     64 % 0.0 in
17:30 17.8 °F 11.6 °F 1039.2 in Calm     67 % 0.0 in
17:45 17.4 °F 12.1 °F 1039.2 in Calm     71 % 0.0 in
18:00 16.8 °F 12.2 °F 1039.2 in Calm     74 % 0.0 in
18:15 16.2 °F 12.3 °F 1039.2 in Calm     78 % 0.0 in
18:30 15.3 °F 12.1 °F 1039.2 in Calm     81 % 0.0 in
18:45 14.4 °F 11.8 °F 1039.2 in Calm     84 % 0.0 in
19:00 13.5 °F 11.4 °F 1039.2 in Calm     87 % 0.0 in
19:15 12.7 °F 11.0 °F 1039.2 in Calm     89 % 0.0 in
19:30 11.9 °F 10.5 °F 1039.2 in Calm     91 % 0.0 in
19:45 11.4 °F 10.2 °F 1039.2 in Calm     92 % 0.0 in
20:00 10.9 °F 9.9 °F 1039.2 in Calm     93 % 0.0 in
20:15 10.5 °F 9.4 °F 1039.2 in Calm     93 % 0.0 in
20:30 10.2 °F 9.2 °F 1039.2 in Calm     94 % 0.0 in
20:45 9.6 °F 8.5 °F 1039.2 in Calm     93 % 0.0 in
21:00 9.2 °F 8.3 °F 1039.2 in Calm     94 % 0.0 in
21:15 8.9 °F 8.1 °F 1039.2 in Calm     95 % 0.0 in
21:30 8.6 °F 7.9 °F 1039.2 in Calm     95 % 0.0 in
21:45 8.2 °F 7.5 °F 1039.5 in Calm     95 % 0.0 in
22:00 8.0 °F 7.2 °F 1039.5 in Calm     95 % 0.0 in
22:15 7.8 °F 7.1 °F 1039.5 in Calm     95 % 0.0 in
22:30 7.6 °F 6.8 °F 1039.2 in Calm     95 % 0.0 in
22:45 7.4 °F 6.6 °F 1039.2 in Calm     95 % 0.0 in
23:00 7.0 °F 6.3 °F 1039.5 in Calm     95 % 0.0 in
23:30 6.6 °F 5.8 °F 1039.5 in Calm     95 % 0.0 in
23:45 6.3 °F 5.5 °F 1039.5 in Calm     95 % 0.0 in
Esan sääasema
Terveisin Weather Underground - 2.75 mb

Alkuperäinen skripti  Jim McMurry - jmcmurry@mwt.net Sovitettu myös templatelle  Wim van der Kuil - Leuven-Template.eu

Laitteet joita käytämme:

Sääasema
Davis VP2

Sääasemaohjelma
Cumulus

Sääaseman tietokone
Asus EeePC

Palveluntarjoaja
Suncomet

Davis VP2

Cumulus

Asus EeePC

Suncomet